createdAt,value
2019-05-07T00:00:03.640Z,74
2019-05-07T00:01:03.139Z,74
2019-05-07T00:02:03.429Z,74
2019-05-07T00:03:03.561Z,74
2019-05-07T00:04:03.057Z,74
2019-05-07T00:05:03.280Z,74
2019-05-07T00:06:03.148Z,74
2019-05-07T00:07:02.866Z,74
2019-05-07T00:08:03.669Z,74
2019-05-07T00:09:03.399Z,74
2019-05-07T00:10:03.635Z,74
2019-05-07T00:11:03.318Z,74
2019-05-07T00:12:05.430Z,75
2019-05-07T00:13:02.736Z,74
2019-05-07T00:14:03.518Z,74
2019-05-07T00:15:04.936Z,74
2019-05-07T00:16:03.807Z,75
2019-05-07T00:17:04.827Z,74
2019-05-07T00:18:03.841Z,74
2019-05-07T00:19:03.455Z,74
2019-05-07T00:20:03.640Z,74
2019-05-07T00:21:03.772Z,75
2019-05-07T00:22:03.548Z,75
2019-05-07T00:23:03.382Z,75
2019-05-07T00:24:03.492Z,75
2019-05-07T00:25:03.377Z,75
2019-05-07T00:26:03.763Z,75
2019-05-07T00:27:03.180Z,75
2019-05-07T00:28:03.585Z,75
2019-05-07T00:29:03.248Z,75
2019-05-07T00:30:03.299Z,75
2019-05-07T00:31:03.208Z,75
2019-05-07T00:32:03.280Z,75
2019-05-07T00:33:03.166Z,75
2019-05-07T00:34:03.044Z,75
2019-05-07T00:35:02.910Z,75
2019-05-07T00:36:03.068Z,75
2019-05-07T00:37:02.792Z,75
2019-05-07T00:38:02.752Z,75
2019-05-07T00:39:03.136Z,75
2019-05-07T00:40:03.185Z,75
2019-05-07T00:41:03.242Z,75
2019-05-07T00:42:03.307Z,75
2019-05-07T00:43:03.412Z,75
2019-05-07T00:44:03.446Z,75
2019-05-07T00:45:23.993Z,75
2019-05-07T00:46:02.889Z,75
2019-05-07T00:47:02.634Z,75
2019-05-07T00:48:03.162Z,75
2019-05-07T00:49:03.805Z,75
2019-05-07T00:50:03.570Z,75
2019-05-07T00:51:03.428Z,76
2019-05-07T00:52:03.695Z,76
2019-05-07T00:53:03.088Z,76
2019-05-07T00:54:03.587Z,76
2019-05-07T00:55:03.409Z,76
2019-05-07T00:56:03.305Z,76
2019-05-07T00:57:03.392Z,76
2019-05-07T00:58:03.128Z,76
2019-05-07T00:59:03.420Z,76
2019-05-07T01:00:03.415Z,76
2019-05-07T01:01:03.301Z,76
2019-05-07T01:02:02.861Z,76
2019-05-07T01:03:03.748Z,76
2019-05-07T01:04:03.219Z,76
2019-05-07T01:05:03.396Z,76
2019-05-07T01:06:03.062Z,76
2019-05-07T01:07:03.109Z,76
2019-05-07T01:08:03.045Z,76
2019-05-07T01:09:03.509Z,76
2019-05-07T01:10:03.025Z,76
2019-05-07T01:11:03.075Z,76
2019-05-07T01:12:03.413Z,76
2019-05-07T01:13:03.014Z,76
2019-05-07T01:14:03.241Z,76
2019-05-07T01:15:03.917Z,76
2019-05-07T01:16:02.845Z,76
2019-05-07T01:17:03.746Z,76
2019-05-07T01:18:03.783Z,76
2019-05-07T01:19:03.637Z,76
2019-05-07T01:20:03.657Z,76
2019-05-07T01:21:03.802Z,76
2019-05-07T01:22:03.462Z,76
2019-05-07T01:23:03.771Z,76
2019-05-07T01:24:03.632Z,76
2019-05-07T01:25:03.592Z,76
2019-05-07T01:26:03.353Z,76
2019-05-07T01:27:03.556Z,76
2019-05-07T01:28:03.198Z,76
2019-05-07T01:29:03.687Z,76
2019-05-07T01:30:03.471Z,76
2019-05-07T01:31:03.709Z,76
2019-05-07T01:32:03.523Z,77
2019-05-07T01:33:03.518Z,77
2019-05-07T01:34:03.581Z,77
2019-05-07T01:35:03.384Z,77
2019-05-07T01:36:03.570Z,77
2019-05-07T01:37:03.272Z,77
2019-05-07T01:38:03.493Z,77
2019-05-07T01:39:03.188Z,76
2019-05-07T01:40:03.489Z,76
2019-05-07T01:41:03.541Z,76
2019-05-07T01:42:03.470Z,76
2019-05-07T01:43:02.990Z,76
2019-05-07T01:44:03.273Z,76
2019-05-07T01:45:03.190Z,76
2019-05-07T01:46:03.487Z,76
2019-05-07T01:47:03.306Z,76
2019-05-07T01:48:04.596Z,76
2019-05-07T01:49:03.292Z,76
2019-05-07T01:50:03.394Z,76
2019-05-07T01:51:03.699Z,76
2019-05-07T01:52:02.831Z,76
2019-05-07T01:53:04.100Z,76
2019-05-07T01:54:02.838Z,77
2019-05-07T01:55:03.811Z,77
2019-05-07T01:56:03.684Z,77
2019-05-07T01:57:03.796Z,77
2019-05-07T01:58:05.008Z,77
2019-05-07T01:59:02.755Z,77
2019-05-07T02:00:03.261Z,77
2019-05-07T02:01:03.498Z,77
2019-05-07T02:02:03.191Z,77
2019-05-07T02:03:03.754Z,77
2019-05-07T02:04:03.571Z,77
2019-05-07T02:05:03.930Z,77
2019-05-07T02:06:03.551Z,77
2019-05-07T02:07:03.312Z,77
2019-05-07T02:08:03.732Z,77
2019-05-07T02:09:03.557Z,77
2019-05-07T02:10:03.292Z,77
2019-05-07T02:11:03.208Z,77
2019-05-07T02:12:03.307Z,77
2019-05-07T02:13:03.447Z,77
2019-05-07T02:14:03.123Z,77
2019-05-07T02:15:03.143Z,78
2019-05-07T02:16:04.445Z,78
2019-05-07T02:17:03.344Z,78
2019-05-07T02:18:02.722Z,78
2019-05-07T02:19:03.016Z,78
2019-05-07T02:20:03.094Z,78
2019-05-07T02:21:03.455Z,78
2019-05-07T02:22:03.226Z,78
2019-05-07T02:23:03.171Z,78
2019-05-07T02:24:03.594Z,78
2019-05-07T02:25:03.867Z,78
2019-05-07T02:26:03.484Z,78
2019-05-07T02:27:03.836Z,78
2019-05-07T02:28:03.633Z,78
2019-05-07T02:29:03.484Z,78
2019-05-07T02:30:04.927Z,78
2019-05-07T02:31:04.431Z,78
2019-05-07T02:32:05.216Z,78
2019-05-07T02:33:04.188Z,78
2019-05-07T02:34:03.602Z,78
2019-05-07T02:35:04.733Z,78
2019-05-07T02:36:03.682Z,78
2019-05-07T02:37:04.463Z,78
2019-05-07T02:38:03.580Z,78
2019-05-07T02:39:04.205Z,78
2019-05-07T02:40:04.804Z,78
2019-05-07T02:41:03.383Z,78
2019-05-07T02:42:03.989Z,78
2019-05-07T02:43:03.342Z,78
2019-05-07T02:44:04.587Z,78
2019-05-07T02:45:04.884Z,78
2019-05-07T02:46:36.150Z,78
2019-05-07T02:48:03.823Z,78
2019-05-07T02:49:03.639Z,78
2019-05-07T02:50:03.588Z,78
2019-05-07T02:51:04.501Z,78
2019-05-07T02:52:04.397Z,78
2019-05-07T02:53:04.592Z,78
2019-05-07T02:54:03.916Z,78
2019-05-07T02:55:04.522Z,79
2019-05-07T02:56:03.941Z,79
2019-05-07T02:57:03.659Z,79
2019-05-07T02:58:04.122Z,79
2019-05-07T02:59:04.514Z,79
2019-05-07T03:00:05.171Z,79
2019-05-07T03:01:05.469Z,79
2019-05-07T03:02:03.969Z,79
2019-05-07T03:03:04.906Z,79
2019-05-07T03:04:04.003Z,79
2019-05-07T03:05:05.792Z,79
2019-05-07T03:06:03.534Z,79
2019-05-07T03:07:04.270Z,79
2019-05-07T03:08:03.823Z,79
2019-05-07T03:09:03.599Z,79
2019-05-07T03:10:04.075Z,79
2019-05-07T03:11:03.936Z,79
2019-05-07T03:12:04.462Z,79
2019-05-07T03:13:03.635Z,79
2019-05-07T03:14:03.598Z,79
2019-05-07T03:15:05.044Z,79
2019-05-07T03:16:04.184Z,79
2019-05-07T03:17:03.473Z,79
2019-05-07T03:18:03.927Z,79
2019-05-07T03:19:04.516Z,79
2019-05-07T03:20:03.667Z,79
2019-05-07T03:21:03.831Z,79
2019-05-07T03:22:04.223Z,79
2019-05-07T03:23:03.656Z,79
2019-05-07T03:24:04.083Z,79
2019-05-07T03:25:03.879Z,79
2019-05-07T03:26:04.453Z,80
2019-05-07T03:27:03.837Z,80
2019-05-07T03:28:04.682Z,80
2019-05-07T03:29:04.242Z,80
2019-05-07T03:30:04.917Z,80
2019-05-07T03:31:06.774Z,80
2019-05-07T03:32:06.696Z,80
2019-05-07T03:33:08.115Z,80
2019-05-07T03:34:07.810Z,80
2019-05-07T03:35:08.275Z,80
2019-05-07T03:36:08.321Z,80
2019-05-07T03:37:06.985Z,80
2019-05-07T03:38:03.998Z,80
2019-05-07T03:39:03.691Z,80
2019-05-07T03:40:04.569Z,80
2019-05-07T03:41:04.142Z,80
2019-05-07T03:42:03.803Z,80
2019-05-07T03:43:06.759Z,80
2019-05-07T03:44:03.949Z,80
2019-05-07T03:45:04.164Z,80
2019-05-07T03:46:03.981Z,79
2019-05-07T03:47:06.652Z,80
2019-05-07T03:48:03.976Z,80
2019-05-07T03:49:04.304Z,80
2019-05-07T03:50:03.854Z,80
2019-05-07T03:51:04.103Z,80
2019-05-07T03:52:04.747Z,80
2019-05-07T03:53:03.728Z,80
2019-05-07T03:54:03.376Z,80
2019-05-07T03:55:04.208Z,80
2019-05-07T03:56:04.802Z,80
2019-05-07T03:57:16.224Z,80
2019-05-07T03:58:03.491Z,80
2019-05-07T03:59:03.855Z,80
2019-05-07T04:00:04.757Z,80
2019-05-07T04:01:04.952Z,80
2019-05-07T04:02:03.759Z,80
2019-05-07T04:03:03.999Z,80
2019-05-07T04:04:03.925Z,80
2019-05-07T04:05:04.767Z,80
2019-05-07T04:06:04.477Z,80
2019-05-07T04:07:03.950Z,80
2019-05-07T04:08:03.820Z,80
2019-05-07T04:09:03.729Z,80
2019-05-07T04:10:05.014Z,80
2019-05-07T04:11:04.415Z,80
2019-05-07T04:12:04.420Z,80
2019-05-07T04:13:04.917Z,80
2019-05-07T04:14:03.357Z,80
2019-05-07T04:15:03.985Z,80
2019-05-07T04:16:04.752Z,80
2019-05-07T04:17:27.333Z,80
2019-05-07T04:19:04.214Z,80
2019-05-07T04:20:04.949Z,80
2019-05-07T04:21:04.480Z,80
2019-05-07T04:22:04.686Z,80
2019-05-07T04:23:04.657Z,80
2019-05-07T04:24:03.839Z,81
2019-05-07T04:25:04.908Z,81
2019-05-07T04:26:04.870Z,81
2019-05-07T04:27:04.061Z,81
2019-05-07T04:28:04.126Z,81
2019-05-07T04:29:06.658Z,81
2019-05-07T04:30:04.172Z,81
2019-05-07T04:31:03.798Z,81
2019-05-07T04:32:03.563Z,81
2019-05-07T04:33:03.861Z,81
2019-05-07T04:34:04.006Z,81
2019-05-07T04:35:04.576Z,81
2019-05-07T04:36:03.566Z,81
2019-05-07T04:37:03.513Z,81
2019-05-07T04:38:07.611Z,81
2019-05-07T04:39:03.651Z,81
2019-05-07T04:40:03.692Z,81
2019-05-07T04:41:04.177Z,81
2019-05-07T04:42:03.810Z,81
2019-05-07T04:43:03.272Z,81
2019-05-07T04:44:04.144Z,81
2019-05-07T04:45:04.731Z,81
2019-05-07T04:46:03.748Z,81
2019-05-07T04:47:04.626Z,81
2019-05-07T04:48:03.555Z,81
2019-05-07T04:49:04.420Z,81
2019-05-07T04:50:04.199Z,81
2019-05-07T04:51:03.857Z,81
2019-05-07T04:52:04.416Z,81
2019-05-07T04:53:03.298Z,81
2019-05-07T04:54:04.079Z,81
2019-05-07T04:55:04.753Z,82
2019-05-07T04:56:03.827Z,82
2019-05-07T04:57:04.128Z,82
2019-05-07T04:58:09.493Z,82
2019-05-07T04:59:04.035Z,82
2019-05-07T05:00:04.051Z,82
2019-05-07T05:01:03.663Z,82
2019-05-07T05:02:04.443Z,82
2019-05-07T05:03:03.652Z,82
2019-05-07T05:04:35.015Z,82
2019-05-07T05:06:03.421Z,82
2019-05-07T05:07:03.176Z,82
2019-05-07T05:08:04.156Z,82
2019-05-07T05:09:03.461Z,82
2019-05-07T05:10:03.578Z,82
2019-05-07T05:11:03.820Z,82
2019-05-07T05:12:03.191Z,82
2019-05-07T05:13:03.622Z,82
2019-05-07T05:14:08.309Z,82
2019-05-07T05:15:03.452Z,82
2019-05-07T05:16:03.082Z,82
2019-05-07T05:17:02.991Z,82
2019-05-07T05:18:02.997Z,82
2019-05-07T05:19:02.817Z,82
2019-05-07T05:20:03.896Z,82
2019-05-07T05:21:03.828Z,82
2019-05-07T05:22:02.944Z,82
2019-05-07T05:23:02.951Z,82
2019-05-07T05:24:03.786Z,82
2019-05-07T05:25:02.965Z,82
2019-05-07T05:26:03.605Z,82
2019-05-07T05:27:03.550Z,82
2019-05-07T05:28:03.745Z,82
2019-05-07T05:29:03.352Z,82
2019-05-07T05:30:03.783Z,82
2019-05-07T05:31:03.645Z,82
2019-05-07T05:32:03.435Z,82
2019-05-07T05:33:04.606Z,82
2019-05-07T05:34:03.422Z,82
2019-05-07T05:35:03.546Z,81
2019-05-07T05:36:03.385Z,81
2019-05-07T05:37:03.338Z,81
2019-05-07T05:38:03.319Z,81
2019-05-07T05:39:03.223Z,81
2019-05-07T05:40:09.172Z,81
2019-05-07T05:41:03.237Z,81
2019-05-07T05:42:03.337Z,80
2019-05-07T05:43:03.256Z,80
2019-05-07T05:44:03.086Z,80
2019-05-07T05:45:03.047Z,80
2019-05-07T05:46:03.053Z,80
2019-05-07T05:47:03.173Z,80
2019-05-07T05:48:08.911Z,80
2019-05-07T05:49:02.894Z,80
2019-05-07T05:50:02.793Z,80
2019-05-07T05:51:02.941Z,80
2019-05-07T05:52:03.944Z,79
2019-05-07T05:53:03.640Z,79
2019-05-07T05:54:02.817Z,79
2019-05-07T05:55:03.575Z,79
2019-05-07T05:56:03.514Z,79
2019-05-07T05:57:03.688Z,79
2019-05-07T05:58:03.663Z,79
2019-05-07T05:59:03.473Z,78
2019-05-07T06:00:03.566Z,78
2019-05-07T06:01:03.463Z,77
2019-05-07T06:02:06.902Z,77
2019-05-07T06:03:03.354Z,77
2019-05-07T06:04:03.556Z,77
2019-05-07T06:05:03.355Z,77
2019-05-07T06:06:03.421Z,77
2019-05-07T06:07:14.966Z,77
2019-05-07T06:08:03.973Z,77
2019-05-07T06:09:03.279Z,77
2019-05-07T06:10:03.383Z,77
2019-05-07T06:11:03.203Z,77
2019-05-07T06:12:03.083Z,77
2019-05-07T06:13:03.135Z,77
2019-05-07T06:14:03.079Z,77
2019-05-07T06:15:03.191Z,77
2019-05-07T06:16:03.325Z,76
2019-05-07T06:17:03.304Z,76
2019-05-07T06:18:24.001Z,76
2019-05-07T06:19:02.960Z,76
2019-05-07T06:20:03.305Z,76
2019-05-07T06:21:03.200Z,76
2019-05-07T06:22:02.906Z,76
2019-05-07T06:23:03.182Z,76
2019-05-07T06:24:02.875Z,76
2019-05-07T06:25:03.776Z,76
2019-05-07T06:26:05.588Z,76
2019-05-07T06:27:03.887Z,76
2019-05-07T06:28:03.844Z,75
2019-05-07T06:29:03.672Z,75
2019-05-07T06:30:05.310Z,75
2019-05-07T06:31:03.745Z,75
2019-05-07T06:32:03.386Z,75
2019-05-07T06:33:03.457Z,75
2019-05-07T06:34:03.392Z,75
2019-05-07T06:35:03.405Z,75
2019-05-07T06:36:03.274Z,75
2019-05-07T06:37:03.528Z,74
2019-05-07T06:38:03.633Z,74
2019-05-07T06:39:03.331Z,74
2019-05-07T06:40:03.335Z,74
2019-05-07T06:41:03.429Z,74
2019-05-07T06:42:03.002Z,74
2019-05-07T06:43:03.391Z,74
2019-05-07T06:44:03.259Z,74
2019-05-07T06:45:03.402Z,74
2019-05-07T06:46:02.905Z,74
2019-05-07T06:47:02.721Z,74
2019-05-07T06:48:03.250Z,74
2019-05-07T06:49:03.072Z,74
2019-05-07T06:50:03.625Z,73
2019-05-07T06:51:03.379Z,73
2019-05-07T06:52:03.257Z,73
2019-05-07T06:53:03.840Z,72
2019-05-07T06:54:03.147Z,72
2019-05-07T06:55:03.557Z,72
2019-05-07T06:56:03.807Z,72
2019-05-07T06:57:03.757Z,72
2019-05-07T06:58:02.909Z,72
2019-05-07T06:59:03.813Z,72
2019-05-07T07:00:03.648Z,70
2019-05-07T07:01:03.782Z,70
2019-05-07T07:02:05.963Z,70
2019-05-07T07:03:03.640Z,70
2019-05-07T07:04:03.318Z,70
2019-05-07T07:05:03.767Z,70
2019-05-07T07:06:03.582Z,70
2019-05-07T07:07:03.812Z,69
2019-05-07T07:08:03.440Z,68
2019-05-07T07:09:03.654Z,68
2019-05-07T07:10:03.463Z,68
2019-05-07T07:11:03.303Z,68
2019-05-07T07:12:03.430Z,67
2019-05-07T07:13:03.323Z,67
2019-05-07T07:14:03.239Z,67
2019-05-07T07:15:03.208Z,67
2019-05-07T07:16:03.540Z,67
2019-05-07T07:17:03.337Z,67
2019-05-07T07:18:03.456Z,67
2019-05-07T07:19:03.596Z,67
2019-05-07T07:20:03.193Z,67
2019-05-07T07:21:03.840Z,67
2019-05-07T07:22:03.039Z,66
2019-05-07T07:23:03.019Z,66
2019-05-07T07:24:03.862Z,66
2019-05-07T07:25:06.919Z,66
2019-05-07T07:26:03.769Z,66
2019-05-07T07:27:02.898Z,65
2019-05-07T07:28:03.889Z,65
2019-05-07T07:29:02.933Z,65
2019-05-07T07:30:03.587Z,64
2019-05-07T07:31:03.655Z,64
2019-05-07T07:32:03.811Z,64
2019-05-07T07:33:03.048Z,63
2019-05-07T07:34:03.492Z,63
2019-05-07T07:35:02.833Z,63
2019-05-07T07:36:02.883Z,63
2019-05-07T07:37:15.935Z,63
2019-05-07T07:38:03.703Z,63
2019-05-07T07:39:03.701Z,63
2019-05-07T07:40:03.990Z,63
2019-05-07T07:41:05.666Z,63
2019-05-07T07:42:03.499Z,62
2019-05-07T07:43:07.521Z,62
2019-05-07T07:44:03.597Z,62
2019-05-07T07:45:03.337Z,61
2019-05-07T07:46:03.486Z,61
2019-05-07T07:47:03.301Z,60
2019-05-07T07:48:03.685Z,60
2019-05-07T07:49:15.454Z,60
2019-05-07T07:50:03.256Z,60
2019-05-07T07:51:03.780Z,60
2019-05-07T07:52:03.538Z,59
2019-05-07T07:53:03.163Z,59
2019-05-07T07:54:03.361Z,59
2019-05-07T07:55:03.070Z,58
2019-05-07T07:56:03.406Z,58
2019-05-07T07:57:03.179Z,58
2019-05-07T07:58:03.148Z,58
2019-05-07T07:59:03.191Z,58
2019-05-07T08:00:03.020Z,58
2019-05-07T08:01:03.240Z,57
2019-05-07T08:02:02.988Z,57
2019-05-07T08:03:03.353Z,57
2019-05-07T08:04:03.127Z,57
2019-05-07T08:05:03.030Z,57
2019-05-07T08:06:02.789Z,57
2019-05-07T08:07:03.467Z,57
2019-05-07T08:08:03.002Z,57
2019-05-07T08:09:03.623Z,57
2019-05-07T08:10:03.852Z,57
2019-05-07T08:11:02.892Z,57
2019-05-07T08:12:04.517Z,57
2019-05-07T08:13:03.511Z,57
2019-05-07T08:14:02.852Z,56
2019-05-07T08:15:24.843Z,56
2019-05-07T08:16:03.825Z,55
2019-05-07T08:17:03.641Z,56
2019-05-07T08:18:03.708Z,56
2019-05-07T08:19:25.266Z,56
2019-05-07T08:20:03.466Z,56
2019-05-07T08:21:03.457Z,56
2019-05-07T08:22:03.587Z,55
2019-05-07T08:23:03.252Z,56
2019-05-07T08:24:03.187Z,55
2019-05-07T08:25:03.517Z,55
2019-05-07T08:26:03.040Z,54
2019-05-07T08:27:03.258Z,54
2019-05-07T08:28:03.262Z,54
2019-05-07T08:29:03.370Z,54
2019-05-07T08:30:03.302Z,54
2019-05-07T08:31:03.205Z,54
2019-05-07T08:32:02.937Z,54
2019-05-07T08:33:02.983Z,54
2019-05-07T08:34:03.243Z,54
2019-05-07T08:35:02.979Z,54
2019-05-07T08:36:03.002Z,54
2019-05-07T08:37:02.866Z,54
2019-05-07T08:38:03.009Z,54
2019-05-07T08:39:03.810Z,53
2019-05-07T08:40:03.409Z,53
2019-05-07T08:41:03.837Z,53
2019-05-07T08:42:02.954Z,53
2019-05-07T08:43:03.856Z,52
2019-05-07T08:44:15.848Z,52
2019-05-07T08:45:03.959Z,52
2019-05-07T08:46:03.408Z,51
2019-05-07T08:47:03.518Z,51
2019-05-07T08:48:03.595Z,51
2019-05-07T08:49:03.575Z,51
2019-05-07T08:50:03.653Z,51
2019-05-07T08:51:03.386Z,51
2019-05-07T08:52:04.168Z,51
2019-05-07T08:53:03.499Z,51
2019-05-07T08:54:03.435Z,51
2019-05-07T08:55:03.372Z,50
2019-05-07T08:56:03.516Z,50
2019-05-07T08:57:02.703Z,50
2019-05-07T08:58:03.379Z,50
2019-05-07T08:59:03.050Z,49
2019-05-07T09:00:05.016Z,49
2019-05-07T09:01:03.368Z,49
2019-05-07T09:02:03.383Z,49
2019-05-07T09:03:02.695Z,49
2019-05-07T09:04:02.707Z,49
2019-05-07T09:05:03.920Z,49
2019-05-07T09:06:03.059Z,49
2019-05-07T09:07:03.878Z,49
2019-05-07T09:08:03.777Z,49
2019-05-07T09:09:03.823Z,49
2019-05-07T09:10:03.452Z,49
2019-05-07T09:11:03.515Z,49
2019-05-07T09:12:03.500Z,49
2019-05-07T09:13:03.557Z,49
2019-05-07T09:14:03.386Z,49
2019-05-07T09:15:03.590Z,49
2019-05-07T09:16:03.409Z,49
2019-05-07T09:17:03.402Z,49
2019-05-07T09:18:03.169Z,48
2019-05-07T09:19:03.117Z,49
2019-05-07T09:20:03.388Z,48
2019-05-07T09:21:02.873Z,48
2019-05-07T09:22:03.184Z,48
2019-05-07T09:23:02.911Z,47
2019-05-07T09:24:02.966Z,47
2019-05-07T09:25:03.388Z,47
2019-05-07T09:26:02.975Z,47
2019-05-07T09:27:03.019Z,47
2019-05-07T09:28:03.884Z,47
2019-05-07T09:29:03.602Z,47
2019-05-07T09:30:03.874Z,46
2019-05-07T09:31:03.651Z,46
2019-05-07T09:32:03.745Z,46
2019-05-07T09:33:03.670Z,46
2019-05-07T09:34:03.294Z,46
2019-05-07T09:35:03.296Z,46
2019-05-07T09:36:03.388Z,46
2019-05-07T09:37:03.352Z,46
2019-05-07T09:38:03.452Z,46
2019-05-07T09:39:03.342Z,46
2019-05-07T09:40:03.409Z,46
2019-05-07T09:41:03.387Z,46
2019-05-07T09:42:02.944Z,47
2019-05-07T09:43:03.207Z,47
2019-05-07T09:44:03.402Z,47
2019-05-07T09:45:03.278Z,47
2019-05-07T09:46:03.003Z,47
2019-05-07T09:47:03.042Z,47
2019-05-07T09:48:03.266Z,47
2019-05-07T09:49:03.374Z,47
2019-05-07T09:50:09.188Z,47
2019-05-07T09:51:03.700Z,47
2019-05-07T09:52:06.254Z,47
2019-05-07T09:53:03.670Z,47
2019-05-07T09:54:03.759Z,47
2019-05-07T09:55:17.737Z,47
2019-05-07T09:56:03.408Z,48
2019-05-07T09:57:03.482Z,48
2019-05-07T09:58:03.681Z,48
2019-05-07T09:59:03.491Z,48
2019-05-07T10:00:03.259Z,47
2019-05-07T10:01:03.417Z,47
2019-05-07T10:02:03.124Z,47
2019-05-07T10:03:03.541Z,47
2019-05-07T10:04:03.168Z,47
2019-05-07T10:05:03.342Z,47
2019-05-07T10:06:03.027Z,47
2019-05-07T10:07:03.223Z,47
2019-05-07T10:08:02.784Z,47
2019-05-07T10:09:03.324Z,47
2019-05-07T10:10:03.533Z,47
2019-05-07T10:11:03.213Z,47
2019-05-07T10:12:03.873Z,47
2019-05-07T10:13:03.759Z,47
2019-05-07T10:14:03.695Z,47
2019-05-07T10:15:03.850Z,47
2019-05-07T10:16:07.967Z,47
2019-05-07T10:17:03.608Z,47
2019-05-07T10:18:03.450Z,47
2019-05-07T10:19:03.591Z,47
2019-05-07T10:20:22.890Z,47
2019-05-07T10:21:03.263Z,47
2019-05-07T10:22:03.553Z,47
2019-05-07T10:23:03.268Z,47
2019-05-07T10:24:03.391Z,48
2019-05-07T10:25:03.399Z,47
2019-05-07T10:26:03.442Z,47
2019-05-07T10:27:03.372Z,47
2019-05-07T10:28:02.953Z,47
2019-05-07T10:29:03.213Z,47
2019-05-07T10:30:02.937Z,47
2019-05-07T10:31:03.032Z,47
2019-05-07T10:32:02.832Z,47
2019-05-07T10:33:02.753Z,47
2019-05-07T10:34:03.226Z,47
2019-05-07T10:35:03.508Z,47
2019-05-07T10:36:03.032Z,47
2019-05-07T10:37:03.065Z,47
2019-05-07T10:38:02.847Z,47
2019-05-07T10:39:03.000Z,47
2019-05-07T10:40:03.389Z,47
2019-05-07T10:41:03.642Z,47
2019-05-07T10:42:03.564Z,46
2019-05-07T10:43:03.575Z,46
2019-05-07T10:44:03.681Z,46
2019-05-07T10:45:03.782Z,46
2019-05-07T10:46:03.628Z,46
2019-05-07T10:47:03.357Z,46
2019-05-07T10:48:03.585Z,46
2019-05-07T10:49:03.046Z,46
2019-05-07T10:50:03.494Z,46
2019-05-07T10:51:03.146Z,46
2019-05-07T10:52:03.459Z,46
2019-05-07T10:53:03.366Z,46
2019-05-07T10:54:03.493Z,46
2019-05-07T10:55:03.559Z,46
2019-05-07T10:56:03.260Z,45
2019-05-07T10:57:03.386Z,45
2019-05-07T10:58:03.311Z,45
2019-05-07T10:59:03.219Z,45
2019-05-07T11:00:03.454Z,46
2019-05-07T11:01:03.241Z,46
2019-05-07T11:02:03.231Z,46
2019-05-07T11:03:02.910Z,46
2019-05-07T11:04:03.128Z,46
2019-05-07T11:05:02.886Z,46
2019-05-07T11:06:02.783Z,46
2019-05-07T11:07:02.987Z,46
2019-05-07T11:08:03.719Z,45
2019-05-07T11:09:03.805Z,45
2019-05-07T11:10:03.985Z,45
2019-05-07T11:11:03.376Z,46
2019-05-07T11:12:03.528Z,46
2019-05-07T11:13:03.735Z,45
2019-05-07T11:14:03.180Z,45
2019-05-07T11:15:03.367Z,45
2019-05-07T11:16:03.615Z,45
2019-05-07T11:17:03.555Z,45
2019-05-07T11:18:03.536Z,45
2019-05-07T11:19:03.253Z,45
2019-05-07T11:20:03.279Z,45
2019-05-07T11:21:03.338Z,45
2019-05-07T11:22:03.833Z,45
2019-05-07T11:23:03.072Z,45
2019-05-07T11:24:03.723Z,44
2019-05-07T11:25:03.290Z,44
2019-05-07T11:26:02.984Z,44
2019-05-07T11:27:03.028Z,45
2019-05-07T11:28:03.097Z,45
2019-05-07T11:29:03.011Z,45
2019-05-07T11:30:03.946Z,45
2019-05-07T11:31:03.638Z,45
2019-05-07T11:32:03.666Z,45
2019-05-07T11:33:03.684Z,45
2019-05-07T11:34:03.791Z,45
2019-05-07T11:35:03.554Z,44
2019-05-07T11:36:03.478Z,44
2019-05-07T11:37:03.619Z,44
2019-05-07T11:38:25.129Z,44
2019-05-07T11:39:03.222Z,44
2019-05-07T11:40:03.761Z,44
2019-05-07T11:41:03.460Z,43
2019-05-07T11:42:03.411Z,43
2019-05-07T11:43:03.007Z,43
2019-05-07T11:44:03.301Z,42
2019-05-07T11:45:03.354Z,42
2019-05-07T11:46:03.122Z,41
2019-05-07T11:47:03.685Z,41
2019-05-07T11:48:04.579Z,41
2019-05-07T11:49:03.091Z,41
2019-05-07T11:50:03.460Z,41
2019-05-07T11:51:04.633Z,41
2019-05-07T11:52:03.171Z,41
2019-05-07T11:53:03.129Z,41
2019-05-07T11:54:02.935Z,41
2019-05-07T11:55:03.353Z,41
2019-05-07T11:56:03.854Z,41
2019-05-07T11:57:03.115Z,41
2019-05-07T11:58:03.626Z,40
2019-05-07T11:59:03.694Z,40
2019-05-07T12:00:03.097Z,40
2019-05-07T12:01:04.350Z,40
2019-05-07T12:02:03.886Z,41
2019-05-07T12:03:03.654Z,41
2019-05-07T12:04:03.759Z,41
2019-05-07T12:05:03.453Z,41
2019-05-07T12:06:03.460Z,40
2019-05-07T12:07:03.666Z,40
2019-05-07T12:08:03.802Z,41
2019-05-07T12:09:03.626Z,41
2019-05-07T12:10:05.228Z,40
2019-05-07T12:11:03.337Z,40
2019-05-07T12:12:03.480Z,40
2019-05-07T12:13:03.456Z,40
2019-05-07T12:14:03.015Z,40
2019-05-07T12:15:03.562Z,40
2019-05-07T12:16:03.375Z,40
2019-05-07T12:17:03.169Z,40
2019-05-07T12:18:03.459Z,40
2019-05-07T12:19:03.080Z,41
2019-05-07T12:20:03.135Z,41
2019-05-07T12:21:24.384Z,41
2019-05-07T12:22:02.946Z,40
2019-05-07T12:23:03.228Z,40
2019-05-07T12:24:02.837Z,40
2019-05-07T12:25:03.741Z,40
2019-05-07T12:26:03.219Z,40
2019-05-07T12:27:03.569Z,40
2019-05-07T12:28:02.962Z,40
2019-05-07T12:29:03.731Z,40
2019-05-07T12:30:03.708Z,40
2019-05-07T12:31:03.729Z,40
2019-05-07T12:32:03.019Z,41
2019-05-07T12:33:03.496Z,40
2019-05-07T12:34:03.590Z,40
2019-05-07T12:35:03.638Z,40
2019-05-07T12:36:03.559Z,40
2019-05-07T12:37:03.281Z,40
2019-05-07T12:38:03.553Z,40
2019-05-07T12:39:03.322Z,40
2019-05-07T12:40:03.289Z,40
2019-05-07T12:41:02.904Z,40
2019-05-07T12:42:03.115Z,40
2019-05-07T12:43:03.496Z,40
2019-05-07T12:44:02.986Z,40
2019-05-07T12:45:03.073Z,40
2019-05-07T12:46:03.038Z,40
2019-05-07T12:47:03.140Z,40
2019-05-07T12:48:03.717Z,40
2019-05-07T12:49:03.613Z,40
2019-05-07T12:50:03.287Z,40
2019-05-07T12:51:03.390Z,40
2019-05-07T12:52:03.013Z,40
2019-05-07T12:53:03.658Z,40
2019-05-07T12:54:03.131Z,40
2019-05-07T12:55:03.526Z,40
2019-05-07T12:56:03.837Z,40
2019-05-07T12:57:02.965Z,40
2019-05-07T12:58:03.066Z,39
2019-05-07T12:59:03.001Z,40
2019-05-07T13:00:03.925Z,39
2019-05-07T13:01:03.860Z,39
2019-05-07T13:02:43.526Z,39
2019-05-07T13:04:03.624Z,40
2019-05-07T13:05:03.574Z,40
2019-05-07T13:06:03.638Z,40
2019-05-07T13:07:03.369Z,40
2019-05-07T13:08:03.642Z,40
2019-05-07T13:09:03.293Z,40
2019-05-07T13:10:03.769Z,40
2019-05-07T13:11:03.651Z,40
2019-05-07T13:12:03.386Z,40
2019-05-07T13:13:03.433Z,39
2019-05-07T13:14:03.532Z,39
2019-05-07T13:15:03.312Z,39
2019-05-07T13:16:03.345Z,40
2019-05-07T13:17:03.330Z,39
2019-05-07T13:18:03.080Z,39
2019-05-07T13:19:02.932Z,39
2019-05-07T13:20:03.491Z,39
2019-05-07T13:21:03.137Z,39
2019-05-07T13:22:03.855Z,39
2019-05-07T13:23:03.195Z,39
2019-05-07T13:24:03.022Z,39
2019-05-07T13:25:03.148Z,39
2019-05-07T13:26:02.924Z,39
2019-05-07T13:27:03.515Z,39
2019-05-07T13:28:03.006Z,39
2019-05-07T13:29:03.807Z,40
2019-05-07T13:30:03.700Z,40
2019-05-07T13:31:02.977Z,40
2019-05-07T13:32:03.718Z,40
2019-05-07T13:33:02.789Z,40
2019-05-07T13:34:03.826Z,40
2019-05-07T13:35:03.612Z,39
2019-05-07T13:36:03.488Z,39
2019-05-07T13:37:03.537Z,39
2019-05-07T13:38:03.608Z,39
2019-05-07T13:39:03.199Z,38
2019-05-07T13:40:03.347Z,38
2019-05-07T13:41:03.191Z,38
2019-05-07T13:42:03.909Z,38
2019-05-07T13:43:03.135Z,39
2019-05-07T13:44:03.525Z,39
2019-05-07T13:45:03.338Z,39
2019-05-07T13:46:03.370Z,38
2019-05-07T13:47:03.582Z,38
2019-05-07T13:48:03.385Z,38
2019-05-07T13:49:03.365Z,39
2019-05-07T13:50:03.887Z,39
2019-05-07T13:51:03.448Z,39
2019-05-07T13:52:04.035Z,39
2019-05-07T13:53:03.316Z,39
2019-05-07T13:54:02.980Z,39
2019-05-07T13:55:03.832Z,39
2019-05-07T13:56:03.809Z,39
2019-05-07T13:57:02.883Z,39
2019-05-07T13:58:03.104Z,39
2019-05-07T13:59:05.296Z,39
2019-05-07T14:00:05.345Z,39
2019-05-07T14:01:05.125Z,39
2019-05-07T14:02:05.239Z,39
2019-05-07T14:03:03.776Z,39
2019-05-07T14:04:04.368Z,39
2019-05-07T14:05:03.945Z,39
2019-05-07T14:06:04.832Z,39
2019-05-07T14:07:03.408Z,39
2019-05-07T14:08:04.835Z,39
2019-05-07T14:09:03.571Z,39
2019-05-07T14:10:03.537Z,39
2019-05-07T14:11:03.039Z,39
2019-05-07T14:12:03.432Z,39
2019-05-07T14:13:17.712Z,39
2019-05-07T14:14:03.187Z,39
2019-05-07T14:15:03.516Z,39
2019-05-07T14:16:03.304Z,39
2019-05-07T14:17:03.277Z,39
2019-05-07T14:18:03.406Z,39
2019-05-07T14:19:04.383Z,39